createdAt,value
2019-02-24T00:00:39.142Z,2.97
2019-02-24T00:03:08.429Z,3.53
2019-02-24T00:05:37.736Z,3.51
2019-02-24T00:08:07.086Z,3.51
2019-02-24T00:10:56.987Z,3.51
2019-02-24T00:13:26.292Z,3.48
2019-02-24T00:15:55.616Z,3.45
2019-02-24T00:18:24.882Z,3.47
2019-02-24T00:20:54.178Z,3.46
2019-02-24T00:23:23.461Z,3.46
2019-02-24T00:25:52.853Z,3.45
2019-02-24T00:28:22.162Z,3.45
2019-02-24T00:30:51.445Z,3.47
2019-02-24T00:33:20.724Z,3.47
2019-02-24T00:35:50.013Z,3.44
2019-02-24T00:38:20.811Z,3.45
2019-02-24T00:40:50.183Z,3.47
2019-02-24T00:43:19.534Z,3.47
2019-02-24T00:45:49.072Z,3.51
2019-02-24T00:48:18.342Z,3.50
2019-02-24T00:50:47.675Z,3.55
2019-02-24T00:53:16.967Z,3.56
2019-02-24T00:55:46.245Z,3.57
2019-02-24T00:58:16.358Z,3.60
2019-02-24T01:00:46.902Z,3.59
2019-02-24T01:03:35.258Z,3.59
2019-02-24T01:06:04.635Z,3.58
2019-02-24T01:08:34.145Z,3.58
2019-02-24T01:11:03.540Z,3.60
2019-02-24T01:13:32.984Z,3.60
2019-02-24T01:16:02.243Z,3.59
2019-02-24T01:18:31.600Z,3.58
2019-02-24T01:21:19.876Z,3.60
2019-02-24T01:23:49.152Z,3.60
2019-02-24T01:26:18.471Z,3.59
2019-02-24T01:28:47.793Z,3.56
2019-02-24T01:31:17.054Z,3.56
2019-02-24T01:33:46.336Z,3.53
2019-02-24T01:36:15.717Z,3.54
2019-02-24T01:41:33.321Z,3.55
2019-02-24T01:44:02.632Z,3.52
2019-02-24T01:46:50.901Z,3.51
2019-02-24T01:49:20.164Z,3.51
2019-02-24T01:51:49.461Z,3.20
2019-02-24T01:54:37.841Z,3.48
2019-02-24T01:57:07.289Z,3.45
2019-02-24T01:59:36.549Z,3.46
2019-02-24T02:02:06.094Z,3.44
2019-02-24T02:04:35.472Z,3.41
2019-02-24T02:07:05.001Z,3.41
2019-02-24T02:09:34.334Z,3.42
2019-02-24T02:12:22.689Z,3.39
2019-02-24T02:14:52.300Z,3.35
2019-02-24T02:17:21.569Z,3.35
2019-02-24T02:19:51.055Z,3.31
2019-02-24T02:22:39.306Z,3.30
2019-02-24T02:25:08.628Z,3.29
2019-02-24T02:27:38.146Z,3.26
2019-02-24T02:30:27.626Z,2.81
2019-02-24T02:35:50.523Z,3.22
2019-02-24T02:38:19.805Z,2.69
2019-02-24T02:40:49.297Z,3.19
2019-02-24T02:43:18.595Z,2.76
2019-02-24T02:45:48.298Z,3.15
2019-02-24T02:48:17.611Z,3.13
2019-02-24T02:50:46.939Z,3.12
2019-02-24T02:53:16.215Z,3.13
2019-02-24T02:55:45.538Z,3.11
2019-02-24T02:58:14.846Z,3.11
2019-02-24T03:00:44.306Z,3.10
2019-02-24T03:03:13.599Z,3.09
2019-02-24T03:08:45.542Z,3.04
2019-02-24T03:11:15.107Z,3.05
2019-02-24T03:13:44.649Z,3.01
2019-02-24T03:16:15.222Z,3.02
2019-02-24T03:18:44.502Z,3.00
2019-02-24T03:21:14.060Z,3.01
2019-02-24T03:23:43.490Z,3.00
2019-02-24T03:26:12.958Z,3.00
2019-02-24T03:29:04.156Z,2.99
2019-02-24T03:31:32.390Z,2.99
2019-02-24T03:34:01.837Z,2.96
2019-02-24T03:36:31.109Z,2.52
2019-02-24T03:39:00.410Z,2.94
2019-02-24T03:41:29.693Z,2.94
2019-02-24T03:43:59.297Z,2.92
2019-02-24T03:46:28.575Z,2.92
2019-02-24T03:48:58.271Z,2.88
2019-02-24T03:51:27.568Z,2.88
2019-02-24T03:53:57.208Z,2.90
2019-02-24T03:56:26.577Z,2.91
2019-02-24T03:58:56.287Z,2.90
2019-02-24T04:01:25.560Z,2.88
2019-02-24T04:07:09.446Z,2.89
2019-02-24T04:09:38.733Z,2.84
2019-02-24T04:12:08.270Z,2.82
2019-02-24T04:14:37.654Z,2.49
2019-02-24T04:17:07.277Z,2.79
2019-02-24T04:19:36.614Z,2.58
2019-02-24T04:24:41.234Z,2.46
2019-02-24T04:27:11.776Z,2.74
2019-02-24T04:29:41.188Z,2.72
2019-02-24T04:32:10.468Z,2.08
2019-02-24T04:34:40.303Z,2.68
2019-02-24T04:37:09.544Z,2.66
2019-02-24T04:45:02.708Z,2.60
2019-02-24T04:47:31.988Z,2.57
2019-02-24T04:50:01.374Z,2.56
2019-02-24T04:52:30.650Z,2.54
2019-02-24T04:55:00.682Z,2.51
2019-02-24T04:57:29.958Z,2.50
2019-02-24T04:59:59.317Z,2.48
2019-02-24T05:02:28.593Z,2.45
2019-02-24T05:04:58.166Z,2.46
2019-02-24T05:07:27.445Z,2.46
2019-02-24T05:09:56.930Z,2.45
2019-02-24T05:12:26.249Z,2.44
2019-02-24T05:14:55.656Z,2.43
2019-02-24T05:17:24.926Z,2.43
2019-02-24T05:19:54.292Z,2.40
2019-02-24T05:22:23.648Z,2.40
2019-02-24T05:24:53.090Z,2.39
2019-02-24T05:27:22.369Z,2.40
2019-02-24T05:29:51.944Z,2.36
2019-02-24T05:32:21.245Z,2.32
2019-02-24T05:34:50.591Z,2.32
2019-02-24T05:37:19.863Z,2.33
2019-02-24T05:40:08.284Z,2.36
2019-02-24T05:42:37.682Z,2.34
2019-02-24T05:45:07.032Z,2.36
2019-02-24T05:47:36.407Z,2.41
2019-02-24T05:50:24.735Z,2.46
2019-02-24T05:52:54.012Z,2.52
2019-02-24T05:55:23.288Z,2.55
2019-02-24T05:57:52.575Z,2.58
2019-02-24T06:00:21.837Z,2.58
2019-02-24T06:02:51.270Z,2.60
2019-02-24T06:05:20.609Z,2.31
2019-02-24T06:07:49.889Z,2.60
2019-02-24T06:10:19.177Z,2.59
2019-02-24T06:12:48.532Z,2.58
2019-02-24T06:15:18.026Z,2.55
2019-02-24T06:20:35.675Z,2.55
2019-02-24T06:23:05.051Z,2.60
2019-02-24T06:25:53.381Z,2.60
2019-02-24T06:28:22.716Z,2.60
2019-02-24T06:30:51.993Z,2.64
2019-02-24T06:33:21.302Z,2.70
2019-02-24T06:35:50.615Z,2.44
2019-02-24T06:38:20.058Z,2.72
2019-02-24T06:40:49.362Z,2.74
2019-02-24T06:43:18.674Z,2.79
2019-02-24T06:45:48.019Z,2.76
2019-02-24T06:48:17.740Z,2.94
2019-02-24T06:51:05.931Z,2.61
2019-02-24T06:53:35.219Z,3.05
2019-02-24T06:56:04.513Z,3.11
2019-02-24T06:58:33.872Z,3.16
2019-02-24T07:01:03.374Z,3.20
2019-02-24T07:03:32.673Z,3.24
2019-02-24T07:06:02.152Z,3.33
2019-02-24T07:08:31.432Z,3.38
2019-02-24T07:11:00.837Z,3.48
2019-02-24T07:13:30.131Z,3.57
2019-02-24T07:15:59.438Z,3.62
2019-02-24T07:18:28.723Z,3.66
2019-02-24T07:20:58.373Z,3.72
2019-02-24T07:23:27.652Z,3.78
2019-02-24T07:25:57.129Z,3.83
2019-02-24T07:28:26.428Z,3.88
2019-02-24T07:30:55.716Z,3.93
2019-02-24T07:33:25.075Z,3.88
2019-02-24T07:35:54.430Z,4.03
2019-02-24T07:38:23.845Z,4.09
2019-02-24T07:40:53.155Z,4.16
2019-02-24T07:43:22.443Z,4.22
2019-02-24T07:45:51.818Z,4.28
2019-02-24T07:50:52.730Z,4.39
2019-02-24T07:53:22.108Z,4.37
2019-02-24T07:55:51.393Z,4.40
2019-02-24T07:58:21.242Z,4.43
2019-02-24T08:00:50.534Z,4.45
2019-02-24T08:03:20.203Z,4.47
2019-02-24T08:05:49.494Z,4.48
2019-02-24T08:08:19.121Z,4.49
2019-02-24T08:11:07.572Z,4.51
2019-02-24T08:13:36.850Z,4.49
2019-02-24T08:16:06.128Z,4.51
2019-02-24T08:18:35.444Z,4.53
2019-02-24T08:21:04.967Z,4.56
2019-02-24T08:23:34.282Z,4.60
2019-02-24T08:26:03.630Z,4.62
2019-02-24T08:28:32.947Z,4.64
2019-02-24T08:31:02.261Z,4.67
2019-02-24T08:33:31.534Z,4.70
2019-02-24T08:36:01.023Z,4.51
2019-02-24T08:38:30.364Z,4.76
2019-02-24T08:40:59.749Z,4.77
2019-02-24T08:43:29.038Z,4.76
2019-02-24T08:45:58.328Z,4.77
2019-02-24T08:48:27.634Z,4.80
2019-02-24T08:50:57.083Z,4.83
2019-02-24T08:53:26.364Z,4.88
2019-02-24T08:55:55.758Z,4.89
2019-02-24T08:58:25.240Z,4.98
2019-02-24T09:00:54.672Z,5.03
2019-02-24T09:03:23.999Z,5.06
2019-02-24T09:05:53.363Z,5.10
2019-02-24T09:08:34.085Z,5.15
2019-02-24T09:13:38.532Z,5.22
2019-02-24T09:16:08.327Z,5.27
2019-02-24T09:18:37.675Z,5.29
2019-02-24T09:21:07.313Z,5.02
2019-02-24T09:23:36.622Z,4.82
2019-02-24T09:26:06.229Z,5.32
2019-02-24T09:28:35.703Z,5.34
2019-02-24T09:31:24.093Z,5.35
2019-02-24T09:33:53.391Z,5.35
2019-02-24T09:36:22.714Z,5.38
2019-02-24T09:38:52.210Z,5.38
2019-02-24T09:41:21.541Z,5.42
2019-02-24T09:43:51.286Z,5.44
2019-02-24T09:46:20.632Z,5.42
2019-02-24T09:48:50.360Z,5.45
2019-02-24T09:51:19.657Z,5.46
2019-02-24T09:53:49.340Z,5.48
2019-02-24T09:56:18.697Z,5.50
2019-02-24T09:58:48.131Z,5.54
2019-02-24T10:01:17.556Z,5.26
2019-02-24T10:03:47.276Z,5.53
2019-02-24T10:06:16.567Z,5.22
2019-02-24T10:08:46.294Z,5.55
2019-02-24T10:11:15.716Z,5.57
2019-02-24T10:16:33.733Z,5.30
2019-02-24T10:19:03.063Z,5.53
2019-02-24T10:21:32.364Z,5.53
2019-02-24T10:24:01.643Z,5.60
2019-02-24T10:26:31.158Z,5.59
2019-02-24T10:29:19.528Z,5.61
2019-02-24T10:31:48.926Z,5.68
2019-02-24T10:34:18.229Z,5.70
2019-02-24T10:36:47.608Z,5.70
2019-02-24T10:39:17.087Z,5.74
2019-02-24T10:41:46.412Z,5.75
2019-02-24T10:44:16.248Z,5.75
2019-02-24T10:46:45.669Z,5.76
2019-02-24T10:49:15.575Z,5.73
2019-02-24T10:52:04.919Z,5.80
2019-02-24T10:54:34.291Z,5.78
2019-02-24T10:57:03.668Z,5.77
2019-02-24T10:59:32.995Z,5.77
2019-02-24T11:02:02.429Z,5.79
2019-02-24T11:04:31.714Z,5.79
2019-02-24T11:07:01.088Z,5.79
2019-02-24T11:09:49.424Z,5.77
2019-02-24T11:12:18.911Z,5.78
2019-02-24T11:14:48.493Z,5.80
2019-02-24T11:17:19.467Z,5.77
2019-02-24T11:19:49.000Z,5.76
2019-02-24T11:22:18.324Z,5.78
2019-02-24T11:24:48.196Z,5.79
2019-02-24T11:27:17.521Z,5.82
2019-02-24T11:29:47.310Z,5.86
2019-02-24T11:32:16.647Z,5.88
2019-02-24T11:34:46.255Z,5.91
2019-02-24T11:37:15.618Z,5.62
2019-02-24T11:39:45.295Z,5.92
2019-02-24T11:42:34.504Z,5.95
2019-02-24T11:45:04.174Z,5.97
2019-02-24T11:50:22.783Z,6.01
2019-02-24T11:52:52.074Z,5.41
2019-02-24T11:55:21.489Z,6.01
2019-02-24T11:57:50.975Z,6.00
2019-02-24T12:00:20.385Z,6.06
2019-02-24T12:03:08.654Z,6.12
2019-02-24T12:05:57.162Z,6.13
2019-02-24T12:08:37.999Z,6.13
2019-02-24T12:11:07.387Z,6.12
2019-02-24T12:13:36.909Z,6.13
2019-02-24T12:16:06.322Z,6.15
2019-02-24T12:18:35.959Z,6.18
2019-02-24T12:21:05.924Z,6.15
2019-02-24T12:23:35.316Z,6.15
2019-02-24T12:26:04.975Z,6.18
2019-02-24T12:28:34.321Z,6.19
2019-02-24T12:31:04.022Z,6.22
2019-02-24T12:33:33.323Z,6.23
2019-02-24T12:36:02.920Z,6.19
2019-02-24T12:38:32.496Z,6.20
2019-02-24T12:41:02.377Z,6.17
2019-02-24T12:43:31.711Z,6.22
2019-02-24T12:46:01.283Z,6.25
2019-02-24T12:48:30.620Z,6.22
2019-02-24T12:51:00.038Z,6.18
2019-02-24T12:53:29.392Z,5.65
2019-02-24T12:58:47.571Z,6.14
2019-02-24T13:01:16.857Z,5.89
2019-02-24T13:03:46.271Z,6.24
2019-02-24T13:06:15.597Z,6.23
2019-02-24T13:11:33.438Z,6.19
2019-02-24T13:14:02.769Z,5.95
2019-02-24T13:16:32.432Z,6.22
2019-02-24T13:19:01.810Z,6.18
2019-02-24T13:21:31.571Z,6.16
2019-02-24T13:24:00.882Z,6.19
2019-02-24T13:26:30.348Z,6.19
2019-02-24T13:28:59.673Z,6.16
2019-02-24T13:31:29.490Z,6.19
2019-02-24T13:33:58.797Z,6.06
2019-02-24T13:36:28.573Z,6.10
2019-02-24T13:38:58.415Z,5.64
2019-02-24T13:41:27.867Z,6.03
2019-02-24T13:43:57.233Z,5.98
2019-02-24T13:46:26.800Z,6.03
2019-02-24T13:48:56.121Z,6.06
2019-02-24T13:51:25.455Z,6.01
2019-02-24T13:53:54.771Z,6.00
2019-02-24T13:56:24.191Z,6.00
2019-02-24T13:58:53.472Z,5.78
2019-02-24T14:01:22.807Z,5.92
2019-02-24T14:03:52.131Z,5.97
2019-02-24T14:06:21.474Z,5.97
2019-02-24T14:08:50.791Z,5.65
2019-02-24T14:11:20.313Z,5.86
2019-02-24T14:13:49.625Z,5.84
2019-02-24T14:16:19.243Z,5.87
2019-02-24T14:18:50.006Z,5.87
2019-02-24T14:21:19.983Z,5.81
2019-02-24T14:23:49.281Z,5.84
2019-02-24T14:26:19.767Z,5.82
2019-02-24T14:28:49.121Z,5.83
2019-02-24T14:31:18.449Z,5.79
2019-02-24T14:33:47.815Z,5.52
2019-02-24T14:36:17.140Z,5.80
2019-02-24T14:38:46.495Z,5.74
2019-02-24T14:41:15.898Z,5.71
2019-02-24T14:43:45.245Z,5.58
2019-02-24T14:46:14.776Z,5.58
2019-02-24T14:48:44.822Z,5.31
2019-02-24T14:51:15.095Z,5.61
2019-02-24T14:53:44.459Z,5.61
2019-02-24T14:56:13.789Z,5.62
2019-02-24T14:59:02.105Z,5.64
2019-02-24T15:01:31.458Z,5.65
2019-02-24T15:04:00.784Z,5.65
2019-02-24T15:06:42.132Z,5.64
2019-02-24T15:09:11.649Z,5.62
2019-02-24T15:11:40.997Z,5.08
2019-02-24T15:14:10.611Z,5.62
2019-02-24T15:16:39.912Z,5.59
2019-02-24T15:19:09.303Z,5.62
2019-02-24T15:21:38.605Z,5.61
2019-02-24T15:24:08.170Z,5.60
2019-02-24T15:26:37.512Z,5.60
2019-02-24T15:29:07.044Z,5.59
2019-02-24T15:31:36.403Z,5.01
2019-02-24T15:34:05.977Z,5.60
2019-02-24T15:36:35.358Z,5.58
2019-02-24T15:39:23.662Z,5.59
2019-02-24T15:41:53.193Z,5.57
2019-02-24T15:44:41.588Z,5.51
2019-02-24T15:47:11.136Z,5.54
2019-02-24T15:49:41.671Z,5.56
2019-02-24T15:52:19.133Z,5.54
2019-02-24T15:57:36.715Z,5.58
2019-02-24T16:00:08.737Z,5.54
2019-02-24T16:02:38.211Z,5.54
2019-02-24T16:05:07.769Z,5.60
2019-02-24T16:07:37.822Z,5.57
2019-02-24T16:10:08.798Z,5.57
2019-02-24T16:12:38.705Z,5.55
2019-02-24T16:15:11.151Z,5.54
2019-02-24T16:17:40.727Z,5.58
2019-02-24T16:20:13.533Z,5.54
2019-02-24T16:22:42.937Z,5.53
2019-02-24T16:28:19.855Z,5.39
2019-02-24T16:30:49.645Z,5.50
2019-02-24T16:33:18.997Z,5.13
2019-02-24T16:35:48.593Z,5.46
2019-02-24T16:38:17.940Z,5.49
2019-02-24T16:40:47.442Z,5.49
2019-02-24T16:43:16.790Z,5.03
2019-02-24T16:45:46.693Z,5.47
2019-02-24T16:48:54.457Z,5.49
2019-02-24T16:51:24.161Z,5.47
2019-02-24T16:53:53.508Z,5.44
2019-02-24T16:56:23.232Z,5.43
2019-02-24T16:58:52.572Z,5.40
2019-02-24T17:01:22.342Z,5.39
2019-02-24T17:03:51.687Z,5.38
2019-02-24T17:06:21.355Z,5.38
2019-02-24T17:08:52.246Z,5.36
2019-02-24T17:11:22.007Z,5.32
2019-02-24T17:13:51.375Z,5.33
2019-02-24T17:16:39.777Z,5.33
2019-02-24T17:19:09.280Z,5.33
2019-02-24T17:21:38.645Z,5.24
2019-02-24T17:24:07.957Z,5.24
2019-02-24T17:29:14.883Z,5.29
2019-02-24T17:31:44.410Z,5.28
2019-02-24T17:34:35.025Z,5.25
2019-02-24T17:37:24.013Z,5.24
2019-02-24T17:45:56.374Z,5.19
2019-02-24T17:48:45.231Z,5.17
2019-02-24T17:51:20.878Z,5.16
2019-02-24T17:53:45.942Z,5.16
2019-02-24T17:56:15.304Z,5.18
2019-02-24T17:58:44.991Z,5.19
2019-02-24T18:01:14.338Z,5.07
2019-02-24T18:03:44.033Z,5.18
2019-02-24T18:06:13.359Z,5.20
2019-02-24T18:08:43.208Z,5.21
2019-02-24T18:11:31.725Z,5.17
2019-02-24T18:14:01.130Z,5.04
2019-02-24T18:16:30.649Z,5.18
2019-02-24T18:19:00.023Z,4.86
2019-02-24T18:21:29.685Z,5.18
2019-02-24T18:23:59.034Z,5.22
2019-02-24T18:29:03.848Z,5.24
2019-02-24T18:31:52.536Z,5.23
2019-02-24T18:34:21.960Z,5.24
2019-02-24T18:36:51.437Z,5.26
2019-02-24T18:39:20.801Z,5.25
2019-02-24T18:41:50.390Z,5.26
2019-02-24T18:44:19.860Z,4.67
2019-02-24T18:46:51.195Z,5.28
2019-02-24T18:49:39.431Z,5.29
2019-02-24T18:52:08.848Z,5.28
2019-02-24T18:54:38.355Z,5.27
2019-02-24T18:57:08.134Z,5.28
2019-02-24T18:59:38.193Z,5.28
2019-02-24T19:02:09.985Z,5.28
2019-02-24T19:04:39.493Z,5.24
2019-02-24T19:07:09.295Z,5.24
2019-02-24T19:09:38.930Z,5.25
2019-02-24T19:12:08.839Z,5.23
2019-02-24T19:14:38.625Z,5.21
2019-02-24T19:17:08.386Z,4.45
2019-02-24T19:19:58.353Z,5.22
2019-02-24T19:22:28.235Z,5.20
2019-02-24T19:24:57.934Z,5.18
2019-02-24T19:27:27.304Z,5.16
2019-02-24T19:29:56.810Z,5.11
2019-02-24T19:32:26.259Z,4.86
2019-02-24T19:34:55.821Z,5.10
2019-02-24T19:37:25.197Z,5.09
2019-02-24T19:39:54.725Z,5.02
2019-02-24T19:42:43.414Z,5.03
2019-02-24T19:45:52.553Z,5.02
2019-02-24T19:48:21.914Z,5.01
2019-02-24T19:50:51.387Z,4.98
2019-02-24T19:53:20.942Z,5.00
2019-02-24T19:55:50.291Z,5.00
2019-02-24T19:58:19.737Z,5.04
2019-02-24T20:01:07.951Z,5.00
2019-02-24T20:06:12.935Z,5.00
2019-02-24T20:08:42.701Z,4.98
2019-02-24T20:11:12.067Z,4.74
2019-02-24T20:13:41.822Z,5.01
2019-02-24T20:16:30.591Z,5.00
2019-02-24T20:19:00.335Z,5.00
2019-02-24T20:21:30.060Z,5.00
2019-02-24T20:23:59.473Z,4.84
2019-02-24T20:26:28.963Z,4.97
2019-02-24T20:28:58.307Z,4.97
2019-02-24T20:31:27.682Z,4.88
2019-02-24T20:33:57.342Z,4.88
2019-02-24T20:36:45.605Z,4.85
2019-02-24T20:39:14.994Z,4.87
2019-02-24T20:41:44.414Z,4.87
2019-02-24T20:44:13.896Z,4.89
2019-02-24T20:46:43.377Z,4.87
2019-02-24T20:49:12.741Z,4.87
2019-02-24T20:51:42.313Z,4.86
2019-02-24T20:54:11.936Z,4.87
2019-02-24T20:56:41.399Z,4.89
2019-02-24T20:59:10.944Z,4.89
2019-02-24T21:01:40.339Z,4.87
2019-02-24T21:04:09.858Z,4.88
2019-02-24T21:06:39.228Z,4.91
2019-02-24T21:09:09.514Z,4.91
2019-02-24T21:11:39.132Z,4.92
2019-02-24T21:14:08.486Z,4.91
2019-02-24T21:16:38.332Z,4.94
2019-02-24T21:19:07.695Z,4.95
2019-02-24T21:21:37.097Z,4.96
2019-02-24T21:24:06.516Z,4.99
2019-02-24T21:26:36.443Z,4.98
2019-02-24T21:29:05.797Z,4.96
2019-02-24T21:31:35.365Z,4.96
2019-02-24T21:34:04.819Z,4.41
2019-02-24T21:36:34.295Z,4.97
2019-02-24T21:39:14.985Z,4.95
2019-02-24T21:41:44.437Z,4.94
2019-02-24T21:44:13.785Z,4.97
2019-02-24T21:46:43.223Z,4.96
2019-02-24T21:49:12.834Z,4.97
2019-02-24T21:51:42.182Z,4.96
2019-02-24T21:54:11.603Z,4.97
2019-02-24T21:56:41.055Z,4.99
2019-02-24T21:59:10.400Z,4.97
2019-02-24T22:01:39.936Z,4.97
2019-02-24T22:04:28.167Z,4.94
2019-02-24T22:09:45.819Z,4.95
2019-02-24T22:12:15.229Z,4.93
2019-02-24T22:14:44.653Z,4.94
2019-02-24T22:17:14.011Z,4.78
2019-02-24T22:19:43.433Z,4.95
2019-02-24T22:22:12.808Z,4.71
2019-02-24T22:25:01.112Z,4.89
2019-02-24T22:27:30.484Z,4.89
2019-02-24T22:29:59.799Z,4.61
2019-02-24T22:32:29.323Z,4.91
2019-02-24T22:34:58.643Z,4.70
2019-02-24T22:37:28.163Z,4.92
2019-02-24T22:39:57.503Z,4.62
2019-02-24T22:42:27.019Z,4.93
2019-02-24T22:44:56.359Z,4.94
2019-02-24T22:47:25.855Z,4.93
2019-02-24T22:49:55.224Z,4.90
2019-02-24T22:52:24.787Z,4.91
2019-02-24T22:54:54.138Z,4.94
2019-02-24T22:57:23.667Z,4.95
2019-02-24T22:59:53.175Z,4.96
2019-02-24T23:03:02.419Z,4.94
2019-02-24T23:08:40.587Z,4.98
2019-02-24T23:14:09.578Z,5.01
2019-02-24T23:16:39.263Z,5.00
2019-02-24T23:19:08.565Z,5.00
2019-02-24T23:21:38.210Z,4.99
2019-02-24T23:24:07.540Z,4.99
2019-02-24T23:26:37.352Z,4.99
2019-02-24T23:29:06.682Z,4.98
2019-02-24T23:31:36.339Z,4.98
2019-02-24T23:34:05.647Z,4.97
2019-02-24T23:36:35.314Z,4.98
2019-02-24T23:41:59.751Z,4.99
2019-02-24T23:44:29.063Z,4.99
2019-02-24T23:46:58.630Z,4.98
2019-02-24T23:49:27.952Z,4.98
2019-02-24T23:51:57.457Z,4.95
2019-02-24T23:54:26.771Z,4.99
2019-02-24T23:56:56.315Z,4.99
2019-02-24T23:59:25.653Z,4.96
